YNAR

Details ICAO YNAR (NRA)
Name Narrandera
Region Australia
Timezone Australia/Sydney (UTC+11.0)
Plans Departing 1
Arriving 5
Stats Elevation 472 ft / 144 m (AMSL)
Location -34.700028° 146.512098°
Runways 2
Magnetic Variation 11.156° E
Sunrise 2017-12-15 18:56:43 UTC / 2017-12-16 05:56:43 Local
Sunset 2017-12-16 09:24:50 UTC / 2017-12-16 20:24:50 Local
Advertisement - Login to hide

Runways

ID Width Length Bearing (true) Bearing (mag) Surface Threshold Offset Overrun Length
05 98 ft / 30 m 3,344 ft / 1,019 m 53.10° 41.94° Dirt 591 ft / 180 m 0 ft / 0 m
14 98 ft / 30 m 5,292 ft / 1,613 m 143.98° 132.82° Asphalt 0 ft / 0 m 0 ft / 0 m
23 98 ft / 30 m 3,344 ft / 1,019 m 233.10° 221.94° Dirt 0 ft / 0 m 0 ft / 0 m
32 98 ft / 30 m 5,292 ft / 1,613 m 323.98° 312.82° Asphalt 0 ft / 0 m 0 ft / 0 m

Map

Weather


0- 5 10 15 20 25 30 35+ Temperature / ° C

Clouds and Precipitation
Forecast for 2017-12-15 18:00 UTC. Updated 44 minutes ago

Ground ~20,000 ft ~40,000 ft Winds

METAR

YNAR 151500Z AUTO 00000KT //// // ////// 21/15 Q1010

TAF

Not found

Frequencies

Unicom 125.30 MHz ACTIVATE LIGHTS ONLY MULT
Unicom 126.70 MHz NARRANDERA MULT
Unicom 126.00 MHz MELBOURNE CENTRE MULT
Warning: Do not use this data for real-world aviation or navigation. No guarantee of current accuracy is given.